Flight Track Log - Related Links

Times and Time Zones

All times are in EDT time to prevent confusion due to time zone crossing. See the USC1801 flight status page for this flight to view local times or setup timezone preferences in your user account.

Time Position Orientation Groundspeed Altitude Reporting Facility
EDT Latitude Longitude Course Direction KTS MPH feet Rate Location/Type
Thu 11:08:42 AM 40.0833 -75.0167 237° Southwest 94 108 800  Level Philadelphia TRACON
Thu 11:09:42 AM 40.0667 -75.0500 237° Southwest 117 135 2,000 1,100 Climbing Philadelphia TRACON
Thu 11:10:42 AM 40.0833 -75.1000 294° West 131 151 3,000 500 Climbing Philadelphia TRACON
Thu 11:11:42 AM 40.1000 -75.1500 294° West 163 188 3,000  Level Philadelphia TRACON
Thu 11:12:42 AM 40.1167 -75.2000 294° West 171 197 3,000  Level Philadelphia TRACON
Thu 11:13:42 AM 40.1500 -75.2500 311° West 171 197 3,000 150 Level Philadelphia TRACON
Thu 11:14:42 AM 40.1833 -75.3000 311° West 168 193 3,300 500 Climbing Philadelphia TRACON
Thu 11:15:42 AM 40.2000 -75.3333 303° West 150 173 4,000 225 Climbing Philadelphia TRACON
Thu 11:17:00 AM 40.1791 -75.4081 303° West  Level FlightAware Approximate
Thu 11:24:00 AM 40.4211 -75.6273 344° North  Level FlightAware Approximate
Thu 11:25:00 AM 40.4661 -75.6446 344° North  Level FlightAware Approximate
Thu 11:26:00 AM 40.5110 -75.6619 344° North  Level FlightAware Approximate
Thu 11:27:00 AM 40.5559 -75.6792 344° North  Level FlightAware Approximate
Thu 11:28:00 AM 40.5927 -75.7153 317° Northwest  Level FlightAware Approximate
Thu 11:29:00 AM 40.6269 -75.7574 317° Northwest  Level FlightAware Approximate
Thu 11:30:00 AM 40.6611 -75.7996 317° Northwest  Level FlightAware Approximate
Thu 11:31:00 AM 40.6953 -75.8417 317° Northwest  Level FlightAware Approximate
Thu 11:32:00 AM 40.7295 -75.8839 317° Northwest  Level FlightAware Approximate
Thu 11:33:00 AM 40.7636 -75.9262 317° Northwest  Level FlightAware Approximate
Thu 11:34:00 AM 40.7978 -75.9685 317° Northwest  Level FlightAware Approximate
Thu 11:35:00 AM 40.8319 -76.0109 317° Northwest  Level FlightAware Approximate
Thu 11:35:37 AM 40.8714 -76.0811 317° Northwest 166 191 8,000  Level New York Center
Thu 11:36:00 AM 40.8662 -76.0530 317° Northwest  Level FlightAware Approximate
Thu 11:36:37 AM 40.9008 -76.1217 314° West 172 198 7,900  Level New York Center
Thu 11:37:00 AM 40.9006 -76.0950 317° Northwest  Level FlightAware Approximate
Thu 11:37:39 AM 40.9322 -76.1683 312° West 172 198 8,000  Level New York Center
Thu 11:38:00 AM 40.9350 -76.1371 317° Northwest  Level FlightAware Approximate
Thu 11:38:36 AM 40.9672 -76.2206 312° West 172 198 7,900  Level New York Center
Thu 11:39:00 AM 40.9694 -76.1791 317° Northwest  Level FlightAware Approximate
Thu 11:39:38 AM 41.0008 -76.2617 317° Northwest 172 198 8,000  Level New York Center
Thu 11:40:39 AM 41.0281 -76.3022 312° West 166 191 8,000 -51 Level New York Center
Thu 11:41:36 AM 41.0633 -76.3492 315° West 171 197 7,900 -51 Descending New York Center
Thu 11:42:37 AM 41.0986 -76.3961 315° West 171 197 7,900  Level New York Center
Thu 11:43:38 AM 41.1253 -76.4453 306° West 171 197 7,900 49 Level New York Center
Thu 11:44:39 AM 41.1586 -76.4894 315° West 166 191 8,000  Climbing New York Center
Thu 11:45:39 AM 41.1858 -76.5331 310° West 171 197 7,900  Descending New York Center
Thu 11:46:37 AM 41.2206 -76.5883 310° West 171 197 8,000 51 Climbing New York Center
Thu 11:47:37 AM 41.2494 -76.6350 309° West 171 197 8,000 -50 Level New York Center
Thu 11:48:38 AM 41.2803 -76.6847 310° West 171 197 7,900 -49 Descending New York Center
Thu 11:49:39 AM 41.3114 -76.7317 311° West 171 197 7,900 50 Level New York Center
Thu 11:50:39 AM 41.3400 -76.7811 308° West 171 197 8,000 51 Climbing New York Center
Thu 11:51:37 AM 41.3561 -76.8378 291° West 166 191 8,000 50 Level New York Center
Thu 11:52:38 AM 41.3761 -76.8922 296° West 166 191 8,100 49 Climbing New York Center
Thu 11:53:39 AM 41.4003 -76.9469 301° West 166 191 8,100 -51 Level New York Center
Thu 11:54:36 AM 41.4203 -77.0014 296° West 166 191 8,000 -50 Descending New York Center
Thu 11:55:38 AM 41.4406 -77.0558 296° West 166 191 8,000  Level New York Center
Thu 11:56:38 AM 41.4625 -77.1106 298° West 166 191 8,000  Level New York Center
Thu 11:57:39 AM 41.4825 -77.1678 295° West 166 191 8,000  Level New York Center
Thu 11:58:39 AM 41.5022 -77.2250 295° West 166 191 8,000  Level New York Center
Thu 11:59:37 AM 41.5222 -77.2797 296° West 166 191 8,000  Level New York Center
Thu 12:00:38 PM 41.5419 -77.3342 296° West 166 191 8,000  Level New York Center
Thu 12:02:58 PM 41.5906 -77.4706 296° West 166 191 8,000  Level Cleveland Center
Thu 12:03:58 PM 41.6106 -77.5169 300° West 173 199 8,000  Level Cleveland Center
Thu 12:04:58 PM 41.6308 -77.5744 295° West 173 199 8,000  Level Cleveland Center
Thu 12:05:59 PM 41.6489 -77.6264 295° West 168 193 8,000  Level Cleveland Center
Thu 12:06:58 PM 41.6711 -77.6864 296° West 173 199 8,000  Level Cleveland Center
Thu 12:07:58 PM 41.6914 -77.7411 296° West 173 199 8,000  Level Cleveland Center
Thu 12:08:58 PM 41.7136 -77.7958 299° West 173 199 8,000  Level Cleveland Center
Thu 12:09:58 PM 41.7317 -77.8508 294° West 173 199 8,000  Level Cleveland Center
Thu 12:10:58 PM 41.7517 -77.9056 296° West 173 199 8,000  Level Cleveland Center
Thu 12:11:58 PM 41.7736 -77.9603 298° West 173 199 8,000  Level Cleveland Center
Thu 12:12:58 PM 41.7917 -78.0181 293° West 173 199 8,000 -50 Level Cleveland Center
Thu 12:13:58 PM 41.8097 -78.0731 294° West 168 193 7,900  Descending Cleveland Center
Thu 12:14:58 PM 41.8317 -78.1281 298° West 168 193 8,000 50 Climbing Cleveland Center
Thu 12:15:58 PM 41.8536 -78.1828 298° West 168 193 8,000  Level Cleveland Center
Thu 12:16:58 PM 41.8736 -78.2406 295° West 168 193 8,000  Level Cleveland Center
Thu 12:17:58 PM 41.8956 -78.2958 298° West 168 193 8,000  Level Cleveland Center
Thu 12:18:58 PM 41.9175 -78.3592 295° West 168 193 8,000  Level Cleveland Center
Thu 12:19:58 PM 41.9375 -78.4169 295° West 168 193 8,000  Level Cleveland Center
Thu 12:20:58 PM 41.9572 -78.4694 297° West 168 193 8,000  Level Cleveland Center
Thu 12:21:58 PM 41.9769 -78.5275 295° West 168 193 8,000  Level Cleveland Center
Thu 12:22:58 PM 41.9989 -78.5828 298° West 168 193 8,000  Level Cleveland Center
Thu 12:23:58 PM 42.0186 -78.6350 297° West 168 193 8,000  Level Cleveland Center
Thu 12:24:58 PM 42.0361 -78.6933 292° West 173 199 8,000 -50 Level Cleveland Center
Thu 12:25:58 PM 42.0558 -78.7514 295° West 173 199 7,900  Descending Cleveland Center
Thu 12:26:58 PM 42.0756 -78.8042 297° West 173 199 8,000 50 Climbing Cleveland Center
Thu 12:27:58 PM 42.0972 -78.8594 298° West 173 199 8,000  Level Cleveland Center
Thu 12:28:58 PM 42.1211 -78.9203 298° West 173 199 8,000  Level Cleveland Center
Thu 12:29:58 PM 42.1383 -78.9675 296° West 180 207 8,000  Level Cleveland Center
Thu 12:30:58 PM 42.1622 -79.0397 294° West 180 207 8,000  Level Cleveland Center
Thu 12:31:58 PM 42.1797 -79.0925 294° West 166 191 8,000  Level Cleveland Center
Thu 12:32:58 PM 42.1947 -79.1397 293° West 161 185 8,000  Level Cleveland Center
Thu 12:33:58 PM 42.2247 -79.1981 305° West 161 185 8,000  Level Cleveland Center
Thu 12:34:58 PM 42.2461 -79.2453 301° West 167 192 8,000  Level Cleveland Center
Thu 12:35:58 PM 42.2675 -79.3008 298° West 167 192 8,000  Level Cleveland Center
Thu 12:36:58 PM 42.2933 -79.3622 300° West 167 192 8,000  Level Cleveland Center
Thu 12:37:58 PM 42.3167 -79.4150 301° West 167 192 8,000  Level Cleveland Center
Thu 12:38:58 PM 42.3361 -79.4653 298° West 167 192 8,000  Level Cleveland Center
Thu 12:40:36 PM 42.3667 -79.5500 296° West 170 196 8,000  Level Toronto Center
Thu 12:41:36 PM 42.3833 -79.5833 304° West 160 184 8,000  Level Toronto Center
Thu 12:42:36 PM 42.4167 -79.6333 312° West 170 196 8,000  Level Toronto Center
Thu 12:43:36 PM 42.4333 -79.7000 289° West 170 196 8,000  Level Toronto Center
Thu 12:44:36 PM 42.4667 -79.7500 312° West 170 196 8,000  Level Toronto Center
Thu 12:45:36 PM 42.4833 -79.8167 289° West 170 196 8,000 -50 Level Toronto Center
Thu 12:46:36 PM 42.5000 -79.8667 294° West 170 196 7,900  Descending Toronto Center
Thu 12:47:36 PM 42.5333 -79.9000 324° Northwest 160 184 8,000 50 Climbing Toronto Center
Thu 12:48:36 PM 42.5500 -79.9667 289° West 170 196 8,000  Level Toronto Center
Thu 12:49:36 PM 42.5667 -80.0167 294° West 170 196 8,000  Level Toronto Center
Thu 12:50:36 PM 42.6000 -80.0833 304° West 170 196 8,000 -50 Level Toronto Center
Thu 12:51:36 PM 42.6167 -80.1333 294° West 170 196 7,900 -50 Descending Toronto Center
Thu 12:52:36 PM 42.6333 -80.2000 289° West 170 196 7,900 50 Level Toronto Center
Thu 12:53:36 PM 42.6667 -80.2500 312° West 170 196 8,000 50 Climbing Toronto Center
Thu 12:54:36 PM 42.6833 -80.2833 304° West 170 196 8,000  Level Toronto Center
Thu 12:55:36 PM 42.7167 -80.3667 299° West 170 196 8,000  Level Toronto Center
Thu 12:56:36 PM 42.7333 -80.4000 304° West 170 196 8,000 -50 Level Toronto Center
Thu 12:57:36 PM 42.7500 -80.4667 289° West 170 196 7,900  Descending Toronto Center
Thu 12:58:36 PM 42.7833 -80.5167 312° West 170 196 8,000 50 Climbing Toronto Center
Thu 12:59:36 PM 42.8000 -80.5833 289° West 170 196 8,000  Level Toronto Center
Thu 01:00:36 PM 42.8333 -80.6333 312° West 170 196 8,000 -350 Level Toronto Center
Thu 01:01:36 PM 42.8500 -80.7000 289° West 170 196 7,300 -700 Descending Toronto Center
Thu 01:02:36 PM 42.8667 -80.7500 294° West 180 207 6,600 -700 Descending Toronto Center
Thu 01:03:36 PM 42.8833 -80.8167 289° West 190 219 5,900 -700 Descending Toronto Center
Thu 01:04:36 PM 42.9167 -80.8667 312° West 190 219 5,200 -450 Descending Toronto Center
Thu 01:05:36 PM 42.9333 -80.9333 289° West 180 207 5,000 -100 Descending Toronto Center
Thu 01:06:36 PM 42.9667 -80.9833 312° West 160 184 5,000  Level Toronto Center
Thu 01:07:36 PM 43.0000 -81.0167 324° Northwest 160 184 5,000  Level Toronto Center
Thu 01:08:36 PM 43.0333 -81.0500 324° Northwest 150 173 5,000  Level Toronto Center
Thu 01:09:36 PM 43.0667 -81.0667 340° North 150 173 5,000 -300 Level Toronto Center
Thu 01:10:36 PM 43.1000 -81.1167 312° West 140 161 4,400 -950 Descending Toronto Center
Thu 01:11:36 PM 43.0833 -81.1667 245° Southwest 140 161 3,100 -1,150 Descending Toronto Center
Thu 01:12:36 PM 43.0667 -81.1833 216° Southwest 130 150 2,100 -950 Descending Toronto Center
Thu 01:13:36 PM 43.0333 -81.1667 160° South 110 127 1,200 -900 Descending Toronto Center

Login

Don't have an account? Register now (free) for customized features, flight alerts, and more!